PUB weather

Pueblo Memorial Airport
Pueblo, Colorado, United States

Public forecast

Using degrees Fahrenheit for public forecast. Weather courtesy of forecast.io.

Current aviation weather report (METAR) for Pueblo Memorial Airport

Retrieved 2019/10/14 11:53 UTC (1 hour ago):

KPUB 141153Z 25003KT 10SM CLR 01/M07 A2997 RMK AO2 SLP122 T00111072 10050 21011 53002

Aviation forecast (TAF) for Pueblo Memorial Airport

Retrieved 2019/10/14 12:42 UTC (16 minutes ago):

TAF KPUB 141141Z 1412/1512 VRB05KT P6SM SKC FM141700 26008KT P6SM SKC FM142000 27015KT P6SM FEW200 FM150200 36012KT P6SM SCT150